Campbell AAF (Fort Campbell) Air Field


Codes: KHOP/HOP
Name: Campbell AAF (Fort Campbell) Air Field
City: Fort Campbell/Hopkinsville
Country: United States
Elevation: 573 ft.
Wikipedia:

Photos at Campbell AAF (Fort Campbell) Air Field


   Photos courtesy of SpottingLog. You can add your own sightings and photos by signing up for a free trial today.



No photos found.

Weather at Campbell AAF (Fort Campbell) Air Field


Time (UTC)DescriptionTempratureWindCloud coverageVisibilityPressureHumidity
13-Jun-2024 03:00Clear Sky25°C2 mph, E0%10000m1015hPa43%
13-Jun-2024 06:00Clear Sky22°C2 mph, E0%10000m1015hPa55%
13-Jun-2024 09:00Clear Sky18°C2 mph, SE0%10000m1014hPa71%
13-Jun-2024 12:00Clear Sky17°C2 mph, S0%10000m1015hPa81%
13-Jun-2024 15:00Clear Sky23°C2 mph, S0%10000m1016hPa67%
13-Jun-2024 18:00Clear Sky27°C4 mph, S0%10000m1015hPa57%
13-Jun-2024 21:00Clear Sky29°C4 mph, S6%10000m1014hPa54%
14-Jun-2024 00:00Clear Sky27°C2 mph, SW3%10000m1014hPa73%
14-Jun-2024 03:00Clear Sky20°C2 mph, NW0%10000m1014hPa80%
14-Jun-2024 06:00Clear Sky19°C0 mph, SW0%10000m1014hPa79%
14-Jun-2024 09:00Broken Clouds18°C2 mph, SW60%10000m1015hPa84%
14-Jun-2024 12:00Broken Clouds20°C4 mph, SW80%10000m1015hPa84%
14-Jun-2024 15:00Overcast Clouds25°C4 mph, W100%10000m1016hPa68%
14-Jun-2024 18:00Broken Clouds29°C4 mph, W71%10000m1014hPa59%
14-Jun-2024 21:00Clear Sky30°C7 mph, NW1%10000m1013hPa62%
15-Jun-2024 00:00Light Rain27°C4 mph, N8%10000m1013hPa81%
15-Jun-2024 03:00Few Clouds23°C7 mph, N19%10000m1015hPa94%
15-Jun-2024 06:00Clear Sky21°C7 mph, NE10%10000m1015hPa95%
15-Jun-2024 09:00Clear Sky20°C7 mph, E0%10000m1014hPa97%
15-Jun-2024 12:00Clear Sky21°C7 mph, E1%10000m1016hPa95%
15-Jun-2024 15:00Broken Clouds25°C7 mph, E54%10000m1017hPa78%
15-Jun-2024 18:00Broken Clouds28°C7 mph, NE70%10000m1016hPa67%
15-Jun-2024 21:00Clear Sky28°C11 mph, E8%10000m1015hPa65%
16-Jun-2024 00:00Few Clouds25°C9 mph, E23%10000m1014hPa81%
16-Jun-2024 03:00Broken Clouds21°C7 mph, E75%10000m1015hPa85%
16-Jun-2024 06:00Overcast Clouds19°C7 mph, E87%10000m1015hPa82%
16-Jun-2024 09:00Overcast Clouds19°C7 mph, SE89%10000m1015hPa81%
16-Jun-2024 12:00Broken Clouds21°C7 mph, SE54%10000m1015hPa87%
16-Jun-2024 15:00Clear Sky28°C7 mph, S1%10000m1015hPa69%
16-Jun-2024 18:00Clear Sky33°C7 mph, SW1%10000m1015hPa53%
16-Jun-2024 21:00Clear Sky34°C4 mph, W0%10000m1013hPa55%
17-Jun-2024 00:00Light Rain24°C9 mph, SE25%10000m1014hPa86%
17-Jun-2024 03:00Light Rain23°C7 mph, S85%10000m1015hPa87%
17-Jun-2024 06:00Overcast Clouds22°C2 mph, SW91%10000m1016hPa91%
17-Jun-2024 09:00Broken Clouds22°C4 mph, S74%10000m1016hPa92%
17-Jun-2024 12:00Broken Clouds23°C4 mph, S53%10000m1017hPa90%
17-Jun-2024 15:00Scattered Clouds29°C7 mph, S37%10000m1017hPa70%
17-Jun-2024 18:00Few Clouds32°C7 mph, S19%10000m1016hPa58%
17-Jun-2024 21:00Clear Sky33°C9 mph, SE9%10000m1015hPa58%
18-Jun-2024 00:00Heavy Intensity Rain23°C7 mph, NE52%10000m1015hPa84%